Nipawin, Canada
Current Conditions -  °F | °C
As of 11:00 AM on Thursday 30 Oct 2014 (Local Time) from CYBU Reporting Station
Clear Clear  
Wind Chill: 32°   Ceiling: Unl
Heat Index: 32°   Visibility: 9mi
Dew Point: 19°   Wind: 3mph
Humidity: 60%   Direction: 30°NNE
Pressure: 30.52"   Gusts: NA
Location:  53.37°N, 104.02°W
Report Text: CYBU 301700Z AUTO 03003KT 330V050 9SM CLR 00/M07 A3052 RMK SLP357
Loading
Personal Weather Stations






























Interactive Weather Map
Tropical Storm Tracking
New forecast layout! Learn more

10-Day Weather Forecast

Advertisements
Track Severe Weather on mobile